Time;durP1;ratioP1;P1;durP2;ratioP2;P2;SDS_P1;SDS_P2;PMS_P1;PMS_P2;Temp;Humidity;BMP_temperature;BMP_pressure;BME280_temperature;BME280_humidity;BME280_pressure;Samples;Min_cycle;Max_cycle;Signal;HPM_P1;HPM_P2
2023/12/08 00:00:28;;;;;;;0.55;0.32;;;;;;;10.61;89.32;101099.88;5005971;28;20065;-75
2023/12/08 00:02:57;;;;;;;3.25;0.63;;;;;;;10.56;91.22;101101.44;5008125;28;20065;-75
2023/12/08 00:05:26;;;;;;;1.58;0.40;;;;;;;10.55;91.32;101101.38;5006836;28;20048;-78
2023/12/08 00:07:56;;;;;;;1.25;0.88;;;;;;;10.45;90.40;101101.06;5008341;28;20042;-74
2023/12/08 00:10:29;;;;;;;0.65;0.40;;;;;;;10.36;91.92;101095.56;5006220;28;20050;-74
2023/12/08 00:12:57;;;;;;;3.63;0.50;;;;;;;10.26;93.67;101101.16;5003815;28;20078;-74
2023/12/08 00:15:26;;;;;;;0.55;0.25;;;;;;;10.20;95.72;101104.44;5002653;28;20052;-73
2023/12/08 00:17:55;;;;;;;2.30;0.47;;;;;;;10.09;96.01;101100.56;5024732;28;20051;-75
2023/12/08 00:20:23;;;;;;;0.63;0.40;;;;;;;10.01;98.95;101096.81;5026793;28;20049;-74
2023/12/08 00:22:52;;;;;;;0.75;0.32;;;;;;;9.91;100.00;101098.16;5025927;28;20042;-74
2023/12/08 00:25:23;;;;;;;0.85;0.40;;;;;;;9.78;100.00;101103.69;5024405;28;20050;-73
2023/12/08 00:27:51;;;;;;;0.40;0.20;;;;;;;9.73;100.00;101116.44;5029198;28;20053;-73
2023/12/08 00:30:20;;;;;;;0.30;0.20;;;;;;;9.71;100.00;101119.78;5027361;28;20053;-74
2023/12/08 00:32:49;;;;;;;0.10;0.10;;;;;;;9.65;100.00;101118.75;5026493;28;20046;-72
2023/12/08 00:35:18;;;;;;;1.23;0.22;;;;;;;9.64;100.00;101131.59;5026299;28;20041;-72
2023/12/08 00:37:47;;;;;;;4.25;0.65;;;;;;;9.59;100.00;101133.13;5026524;28;20063;-73
2023/12/08 00:40:16;;;;;;;2.38;0.60;;;;;;;9.52;100.00;101136.28;5020978;28;20658;-73
2023/12/08 00:42:49;;;;;;;5.07;0.55;;;;;;;9.48;100.00;101149.88;5024356;28;20068;-72
2023/12/08 00:45:19;;;;;;;1.95;0.75;;;;;;;9.44;100.00;101149.78;5028313;28;20045;-73
2023/12/08 00:47:48;;;;;;;0.50;0.40;;;;;;;9.39;100.00;101146.13;5028684;28;20062;-72
2023/12/08 00:50:16;;;;;;;1.00;0.30;;;;;;;9.36;100.00;101142.53;5026582;28;20054;-74
2023/12/08 00:52:46;;;;;;;2.10;0.90;;;;;;;9.33;100.00;101143.28;5029877;28;20045;-75
2023/12/08 00:55:15;;;;;;;0.55;0.25;;;;;;;9.23;100.00;101143.72;5028406;28;20049;-74
2023/12/08 00:57:46;;;;;;;0.73;0.40;;;;;;;9.16;100.00;101146.88;5025589;28;20103;-73
2023/12/08 01:00:17;;;;;;;1.13;0.63;;;;;;;9.07;100.00;101162.88;5010641;28;20128;-72
2023/12/08 01:02:48;;;;;;;0.50;0.40;;;;;;;9.00;100.00;101155.66;5030261;28;20041;-72
2023/12/08 01:05:18;;;;;;;1.67;0.40;;;;;;;8.91;100.00;101153.59;5027881;28;20445;-73
2023/12/08 01:07:50;;;;;;;1.40;0.63;;;;;;;8.88;100.00;101153.44;5023016;28;20098;-71
2023/12/08 01:10:20;;;;;;;2.17;0.57;;;;;;;8.84;100.00;101156.72;5027955;28;20049;-72
2023/12/08 01:12:51;;;;;;;0.65;0.55;;;;;;;8.78;100.00;101153.91;5026368;28;20103;-72
2023/12/08 01:15:20;;;;;;;4.15;0.98;;;;;;;8.74;100.00;101172.63;5027616;28;20111;-71
2023/12/08 01:17:49;;;;;;;2.78;0.73;;;;;;;8.67;100.00;101170.59;5028067;28;20053;-72
2023/12/08 01:20:18;;;;;;;1.70;0.93;;;;;;;8.64;100.00;101175.63;5028855;28;20046;-73
2023/12/08 01:22:47;;;;;;;3.13;1.10;;;;;;;8.64;100.00;101180.78;5031601;28;20049;-72
2023/12/08 01:25:16;;;;;;;3.67;1.33;;;;;;;8.62;100.00;101183.31;5032123;28;20490;-70
2023/12/08 01:27:45;;;;;;;3.83;1.60;;;;;;;8.64;100.00;101185.97;5032564;28;20190;-71
2023/12/08 01:30:16;;;;;;;1.30;0.93;;;;;;;8.68;100.00;101188.75;5031863;28;20526;-72
2023/12/08 01:32:45;;;;;;;4.22;1.17;;;;;;;8.67;100.00;101189.53;5032221;28;20060;-72
2023/12/08 01:35:14;;;;;;;3.88;1.08;;;;;;;8.70;100.00;101191.38;5030504;28;20057;-72
2023/12/08 01:37:42;;;;;;;2.55;1.10;;;;;;;8.70;100.00;101192.25;5024389;28;20156;-71
2023/12/08 01:40:12;;;;;;;3.83;1.88;;;;;;;8.69;100.00;101202.50;5026657;28;20080;-73
2023/12/08 01:42:44;;;;;;;5.00;1.23;;;;;;;8.64;100.00;101193.69;5027781;28;20068;-71
2023/12/08 01:45:13;;;;;;;3.10;1.25;;;;;;;8.60;100.00;101196.13;5027271;28;20053;-70
2023/12/08 01:47:45;;;;;;;1.70;0.93;;;;;;;8.55;100.00;101187.28;5028035;28;20053;-73
2023/12/08 01:50:16;;;;;;;2.65;1.00;;;;;;;8.51;100.00;101205.16;5027661;28;20069;-70
2023/12/08 01:52:55;;;;;;;4.63;1.10;;;;;;;8.45;100.00;101205.75;5026779;28;20056;-72
2023/12/08 01:55:24;;;;;;;4.60;1.58;;;;;;;8.45;100.00;101216.06;5027993;28;20060;-72
2023/12/08 01:57:53;;;;;;;3.88;0.90;;;;;;;8.41;100.00;101206.44;5031187;28;20045;-72
2023/12/08 02:00:22;;;;;;;2.67;1.33;;;;;;;8.39;100.00;101211.47;5030305;28;20048;-73
2023/12/08 02:02:52;;;;;;;3.78;1.02;;;;;;;8.36;100.00;101208.78;5026124;28;20045;-73
2023/12/08 02:05:27;;;;;;;2.40;1.02;;;;;;;8.32;100.00;101208.56;5028906;28;20531;-73
2023/12/08 02:07:57;;;;;;;3.88;1.40;;;;;;;8.26;100.00;101211.72;5029713;28;20049;-72
2023/12/08 02:10:25;;;;;;;4.53;1.50;;;;;;;8.24;100.00;101210.78;5025733;28;20069;-73
2023/12/08 02:12:54;;;;;;;3.17;1.50;;;;;;;8.24;100.00;101215.94;5027629;28;20056;-74
2023/12/08 02:15:25;;;;;;;3.05;1.27;;;;;;;8.22;100.00;101216.66;5027754;28;20085;-74
2023/12/08 02:17:56;;;;;;;2.97;1.50;;;;;;;8.25;100.00;101222.88;5029823;28;20573;-72
2023/12/08 02:20:25;;;;;;;4.88;1.40;;;;;;;8.28;100.00;101216.97;5027511;28;22036;-74
2023/12/08 02:22:54;;;;;;;2.42;1.08;;;;;;;8.29;100.00;101222.19;5029122;28;20060;-72
2023/12/08 02:25:26;;;;;;;2.42;1.02;;;;;;;8.25;100.00;101229.72;5029083;28;20049;-78
2023/12/08 02:28:00;;;;;;;2.53;0.98;;;;;;;8.19;100.00;101232.88;5030032;28;20074;-74
2023/12/08 02:30:29;;;;;;;2.72;1.10;;;;;;;8.20;100.00;101232.09;5028959;28;20080;-73
2023/12/08 02:33:05;;;;;;;1.73;0.80;;;;;;;8.26;100.00;101242.66;5026935;28;20053;-73
2023/12/08 02:35:40;;;;;;;6.40;0.90;;;;;;;8.32;100.00;101244.66;5027487;28;20053;-71
2023/12/08 02:38:12;;;;;;;8.50;1.17;;;;;;;8.28;100.00;101248.78;5026431;28;20056;-72
2023/12/08 02:40:43;;;;;;;2.08;0.85;;;;;;;8.28;100.00;101248.78;5026023;28;20069;-72
2023/12/08 02:43:11;;;;;;;6.30;1.25;;;;;;;8.27;100.00;101241.88;5027405;28;20049;-71
2023/12/08 02:45:40;;;;;;;2.47;0.88;;;;;;;8.28;100.00;101237.59;5026666;28;20111;-72
2023/12/08 02:48:09;;;;;;;4.93;0.80;;;;;;;8.34;100.00;101248.19;5027146;28;20045;-72
2023/12/08 02:50:37;;;;;;;1.58;0.90;;;;;;;8.33;100.00;101249.88;5027767;28;20041;-72
2023/12/08 02:53:08;;;;;;;4.95;1.13;;;;;;;8.38;100.00;101244.91;5028165;28;20053;-71
2023/12/08 02:55:37;;;;;;;2.20;0.90;;;;;;;8.41;100.00;101250.28;5029621;28;20060;-72
2023/12/08 02:58:16;;;;;;;2.08;0.75;;;;;;;8.44;100.00;101254.69;5031267;28;20049;-72
2023/12/08 03:00:45;;;;;;;2.10;0.60;;;;;;;8.42;100.00;101251.16;5027384;28;20060;-73
2023/12/08 03:03:14;;;;;;;0.95;0.50;;;;;;;8.45;100.00;101256.44;5026371;28;20060;-75
2023/12/08 03:05:46;;;;;;;1.10;0.45;;;;;;;8.43;100.00;101253.81;5026081;28;20056;-73
2023/12/08 03:08:15;;;;;;;1.02;0.60;;;;;;;8.36;96.45;101255.19;5029480;28;20041;-73
2023/12/08 03:10:43;;;;;;;4.38;0.70;;;;;;;8.31;96.64;101253.19;5026810;28;20231;-71
2023/12/08 03:13:12;;;;;;;0.77;0.60;;;;;;;8.31;99.27;101264.38;5026026;28;20229;-73
2023/12/08 03:15:43;;;;;;;2.00;0.57;;;;;;;8.27;98.97;101272.81;5025847;28;20143;-71
2023/12/08 03:18:18;;;;;;;0.80;0.57;;;;;;;8.28;100.00;101281.41;5027796;28;20393;-72
2023/12/08 03:20:53;;;;;;;0.73;0.57;;;;;;;8.30;100.00;101282.38;5027225;28;20555;-76
2023/12/08 03:23:22;;;;;;;0.70;0.50;;;;;;;8.33;100.00;101287.66;5025791;28;20049;-74
2023/12/08 03:25:51;;;;;;;0.75;0.52;;;;;;;8.34;100.00;101289.44;5028394;28;20618;-73
2023/12/08 03:28:19;;;;;;;0.68;0.60;;;;;;;8.33;100.00;101301.44;5027403;28;20049;-74
2023/12/08 03:30:50;;;;;;;2.85;0.70;;;;;;;8.30;100.00;101303.88;5028080;28;20125;-73
2023/12/08 03:33:21;;;;;;;0.63;0.63;;;;;;;8.26;100.00;101295.94;5028292;28;20063;-74
2023/12/08 03:35:49;;;;;;;0.93;0.65;;;;;;;8.22;100.00;101310.34;5026783;28;20041;-75
2023/12/08 03:38:18;;;;;;;1.13;0.82;;;;;;;8.13;100.00;101308.25;5029122;28;20688;-75
2023/12/08 03:40:47;;;;;;;1.63;0.95;;;;;;;8.02;100.00;101311.09;5027007;28;20045;-74
2023/12/08 03:43:22;;;;;;;1.45;0.80;;;;;;;7.92;100.00;101304.59;5025723;28;20511;-73
2023/12/08 03:45:52;;;;;;;1.65;0.75;;;;;;;7.92;100.00;101309.75;5027005;28;20046;-73
2023/12/08 03:48:21;;;;;;;4.03;0.60;;;;;;;7.91;100.00;101318.31;5028982;28;20415;-76
2023/12/08 03:50:50;;;;;;;1.60;0.88;;;;;;;7.91;100.00;101326.03;5023618;28;20080;-75
2023/12/08 03:53:18;;;;;;;0.38;0.38;;;;;;;7.88;100.00;101324.19;5029903;28;20104;-74
2023/12/08 03:55:47;;;;;;;0.95;0.40;;;;;;;7.89;100.00;101325.06;5031710;28;20046;-73
2023/12/08 03:58:16;;;;;;;0.73;0.20;;;;;;;7.90;100.00;101331.97;5030549;28;20053;-73
2023/12/08 04:00:45;;;;;;;1.58;0.40;;;;;;;7.90;100.00;101331.97;5029339;28;20049;-73
2023/12/08 04:03:15;;;;;;;0.60;0.30;;;;;;;7.93;100.00;101337.31;5029060;28;20053;-73
2023/12/08 04:05:44;;;;;;;0.45;0.25;;;;;;;7.97;100.00;101334.97;5028831;28;20073;-72
2023/12/08 04:08:13;;;;;;;0.70;0.25;;;;;;;7.98;100.00;101331.56;5028185;28;20057;-73
2023/12/08 04:10:42;;;;;;;0.25;0.20;;;;;;;8.00;100.00;101333.34;5029600;28;20056;-72
2023/12/08 04:13:11;;;;;;;0.57;0.32;;;;;;;7.99;100.00;101342.75;5026638;28;20095;-72
2023/12/08 04:15:40;;;;;;;0.63;0.50;;;;;;;7.97;100.00;101336.63;5026232;28;20049;-72
2023/12/08 04:18:09;;;;;;;1.30;0.50;;;;;;;7.97;100.00;101339.19;5027521;28;20680;-72
2023/12/08 04:20:39;;;;;;;1.05;0.40;;;;;;;7.91;100.00;101339.81;5025384;28;20045;-72
2023/12/08 04:23:08;;;;;;;1.15;0.57;;;;;;;7.85;100.00;101349.78;5027845;28;20061;-71
2023/12/08 04:25:36;;;;;;;1.10;0.38;;;;;;;7.79;100.00;101338.28;5026753;28;20046;-71
2023/12/08 04:28:06;;;;;;;0.52;0.30;;;;;;;7.76;100.00;101345.09;5028016;28;20051;-72
2023/12/08 04:30:42;;;;;;;3.75;0.40;;;;;;;7.75;100.00;101353.59;5026054;28;20041;-72
2023/12/08 04:33:11;;;;;;;0.90;0.45;;;;;;;7.75;100.00;101363.03;5026012;28;20408;-72
2023/12/08 04:35:41;;;;;;;0.35;0.10;;;;;;;7.74;100.00;101369.88;5026300;28;20041;-71
2023/12/08 04:38:10;;;;;;;0.82;0.40;;;;;;;7.72;100.00;101374.06;5027398;28;20499;-72
2023/12/08 04:40:39;;;;;;;0.30;0.10;;;;;;;7.69;100.00;101373.91;5022227;28;20053;-72
2023/12/08 04:43:07;;;;;;;2.80;0.47;;;;;;;7.69;100.00;101394.50;5027121;28;20062;-72
2023/12/08 04:45:36;;;;;;;2.85;0.50;;;;;;;7.65;100.00;101402.00;5027330;28;20045;-72
2023/12/08 04:48:05;;;;;;;0.40;0.25;;;;;;;7.57;100.00;101396.47;5026736;28;20083;-73
2023/12/08 04:50:34;;;;;;;0.20;0.10;;;;;;;7.54;100.00;101411.75;5027119;28;20037;-73
2023/12/08 04:53:05;;;;;;;1.42;0.40;;;;;;;7.53;100.00;101412.53;5028307;28;20092;-72
2023/12/08 04:55:33;;;;;;;0.85;0.35;;;;;;;7.52;100.00;101416.81;5026252;28;20176;-72
2023/12/08 04:58:02;;;;;;;5.22;2.47;;;;;;;7.49;100.00;101428.63;5029797;28;20492;-71
2023/12/08 05:00:34;;;;;;;6.10;2.30;;;;;;;7.45;100.00;101425.03;5029248;28;20045;-71
2023/12/08 05:03:03;;;;;;;3.67;1.20;;;;;;;7.41;100.00;101422.22;5030661;28;20205;-74
2023/12/08 05:05:32;;;;;;;3.08;1.58;;;;;;;7.31;100.00;101424.31;5030545;28;20063;-72
2023/12/08 05:08:01;;;;;;;4.20;1.35;;;;;;;7.21;100.00;101429.75;5027497;28;20050;-72
2023/12/08 05:10:34;;;;;;;4.97;1.73;;;;;;;7.17;100.00;101422.69;5028911;28;20057;-72
2023/12/08 05:13:03;;;;;;;3.58;1.52;;;;;;;7.14;100.00;101438.81;5029522;28;20503;-73
2023/12/08 05:15:35;;;;;;;6.47;1.55;;;;;;;7.13;100.00;101436.19;5028365;28;20494;-73
2023/12/08 05:18:04;;;;;;;3.97;1.63;;;;;;;7.12;100.00;101440.44;5031171;28;20053;-73
2023/12/08 05:20:36;;;;;;;2.38;1.15;;;;;;;7.09;100.00;101439.38;5030136;28;20056;-74
2023/12/08 05:23:05;;;;;;;1.45;0.90;;;;;;;7.13;100.00;101454.19;5027890;28;20076;-73
2023/12/08 05:25:37;;;;;;;2.42;1.08;;;;;;;7.16;100.00;101459.50;5029074;28;20052;-74
2023/12/08 05:28:06;;;;;;;1.20;0.70;;;;;;;7.20;100.00;101469.16;5030385;28;20064;-73
2023/12/08 05:30:34;;;;;;;1.27;0.80;;;;;;;7.22;100.00;101469.25;5030368;28;20049;-72
2023/12/08 05:33:03;;;;;;;1.55;0.90;;;;;;;7.21;100.00;101470.91;5029986;28;20056;-73
2023/12/08 05:35:34;;;;;;;1.77;0.85;;;;;;;7.26;100.00;101474.66;5030556;28;20046;-73
2023/12/08 05:38:03;;;;;;;0.47;0.47;;;;;;;7.24;100.00;101478.84;5029591;28;20132;-72
2023/12/08 05:40:35;;;;;;;2.38;0.68;;;;;;;7.21;100.00;101481.22;5026113;28;20057;-73
2023/12/08 05:43:06;;;;;;;1.48;0.80;;;;;;;7.19;100.00;101476.78;5028093;28;20091;-72
2023/12/08 05:45:35;;;;;;;6.43;1.00;;;;;;;7.16;100.00;101479.22;5027695;28;20049;-73
2023/12/08 05:48:04;;;;;;;0.82;0.52;;;;;;;7.16;100.00;101484.34;5026418;28;20058;-72
2023/12/08 05:50:33;;;;;;;1.45;0.88;;;;;;;7.18;100.00;101490.47;5030838;28;20050;-73
2023/12/08 05:53:02;;;;;;;2.17;0.75;;;;;;;7.19;100.00;101493.13;5034726;28;20056;-71
2023/12/08 05:55:31;;;;;;;0.68;0.52;;;;;;;7.18;100.00;101499.06;5033471;28;20115;-72
2023/12/08 05:58:01;;;;;;;0.98;0.50;;;;;;;7.19;100.00;101493.13;5029730;28;20117;-71
2023/12/08 06:00:33;;;;;;;1.38;0.82;;;;;;;7.18;100.00;101496.50;5026403;28;20085;-71
2023/12/08 06:03:02;;;;;;;0.90;0.52;;;;;;;7.22;100.00;101507.88;5027599;28;20197;-73
2023/12/08 06:05:31;;;;;;;1.55;0.95;;;;;;;7.17;100.00;101494.75;5028094;28;20146;-72
2023/12/08 06:08:00;;;;;;;3.35;0.70;;;;;;;7.21;100.00;101512.09;5026834;28;20277;-72
2023/12/08 06:10:28;;;;;;;2.03;0.77;;;;;;;7.15;100.00;101519.50;5028161;28;20041;-72
2023/12/08 06:12:57;;;;;;;1.73;0.88;;;;;;;7.07;100.00;101521.63;5027274;28;20045;-71
2023/12/08 06:15:27;;;;;;;2.63;0.80;;;;;;;7.09;100.00;101526.88;5029051;28;20049;-73
2023/12/08 06:17:56;;;;;;;1.10;0.82;;;;;;;7.05;100.00;101530.06;5028043;28;20056;-72
2023/12/08 06:20:24;;;;;;;1.02;0.73;;;;;;;7.03;100.00;101531.69;5026778;28;20041;-71
2023/12/08 06:22:53;;;;;;;1.50;0.65;;;;;;;7.03;100.00;101536.81;5027660;28;20084;-72
2023/12/08 06:25:23;;;;;;;2.80;0.80;;;;;;;7.02;100.00;101532.50;5027308;28;20045;-71
2023/12/08 06:27:53;;;;;;;2.22;0.90;;;;;;;7.00;100.00;101542.69;5026578;28;20469;-72
2023/12/08 06:30:22;;;;;;;3.83;1.17;;;;;;;6.98;100.00;101540.81;5027588;28;20084;-72
2023/12/08 06:32:52;;;;;;;1.48;0.80;;;;;;;6.94;100.00;101544.94;5027992;28;20083;-72
2023/12/08 06:35:24;;;;;;;2.72;0.60;;;;;;;6.86;100.00;101544.47;5027197;28;20746;-72
2023/12/08 06:37:53;;;;;;;1.38;0.68;;;;;;;6.77;100.00;101538.81;5026730;28;20046;-71
2023/12/08 06:40:21;;;;;;;0.80;0.50;;;;;;;6.76;100.00;101542.19;5027735;28;20892;-72
2023/12/08 06:42:50;;;;;;;0.45;0.40;;;;;;;6.74;100.00;101533.50;5026195;28;20064;-72
2023/12/08 06:45:19;;;;;;;0.47;0.38;;;;;;;6.69;100.00;101534.94;5027651;28;20061;-72
2023/12/08 06:47:48;;;;;;;0.73;0.52;;;;;;;6.71;100.00;101535.88;5027548;28;20053;-72
2023/12/08 06:50:18;;;;;;;0.60;0.38;;;;;;;6.68;100.00;101536.59;5029534;28;20053;-72
2023/12/08 06:52:51;;;;;;;0.57;0.50;;;;;;;6.67;100.00;101536.53;5027905;28;20064;-72
2023/12/08 06:55:19;;;;;;;1.65;0.47;;;;;;;6.66;100.00;101534.72;5028081;28;20063;-71
2023/12/08 06:57:48;;;;;;;1.75;0.63;;;;;;;6.72;100.00;101548.81;5024586;28;20045;-71
2023/12/08 07:00:17;;;;;;;1.27;0.52;;;;;;;6.76;100.00;101554.13;5028216;28;20055;-71
2023/12/08 07:02:46;;;;;;;0.90;0.57;;;;;;;6.78;100.00;101561.19;5026833;28;20042;-72
2023/12/08 07:05:19;;;;;;;2.28;0.57;;;;;;;6.83;100.00;101570.03;5025889;28;20041;-71
2023/12/08 07:07:49;;;;;;;0.40;0.40;;;;;;;6.91;100.00;101578.19;5027993;28;20042;-71
2023/12/08 07:10:19;;;;;;;4.78;0.60;;;;;;;6.89;100.00;101564.34;5024022;28;20051;-71
2023/12/08 07:12:47;;;;;;;0.45;0.32;;;;;;;7.01;100.00;101579.59;5023507;28;20060;-72
2023/12/08 07:15:16;;;;;;;0.80;0.40;;;;;;;7.05;100.00;101584.13;5026673;28;20530;-72
2023/12/08 07:17:45;;;;;;;1.13;0.73;;;;;;;7.06;100.00;101589.34;5022056;28;20049;-72
2023/12/08 07:20:15;;;;;;;0.80;0.30;;;;;;;7.07;100.00;101590.25;5024066;28;20060;-73
2023/12/08 07:22:43;;;;;;;0.95;0.50;;;;;;;7.12;100.00;101591.38;5024989;28;20064;-72
2023/12/08 07:25:14;;;;;;;0.80;0.50;;;;;;;7.15;100.00;101596.72;5025143;28;20487;-74
2023/12/08 07:27:43;;;;;;;0.85;0.30;;;;;;;7.16;100.00;101595.03;5029663;28;20050;-74
2023/12/08 07:30:13;;;;;;;4.22;0.50;;;;;;;7.10;100.00;101582.69;5024922;28;20041;-74
2023/12/08 07:32:41;;;;;;;3.90;0.70;;;;;;;7.13;100.00;101585.44;5026458;28;20052;-75
2023/12/08 07:35:11;;;;;;;0.28;0.20;;;;;;;7.07;100.00;101592.81;5029069;28;20080;-74
2023/12/08 07:37:41;;;;;;;1.58;0.40;;;;;;;7.07;100.00;101596.25;5028836;28;20055;-75
2023/12/08 07:40:11;;;;;;;0.70;0.43;;;;;;;7.08;100.00;101594.59;5027391;28;20463;-75
2023/12/08 07:42:42;;;;;;;0.43;0.30;;;;;;;7.10;100.00;101592.97;5026677;28;20059;-75
2023/12/08 07:45:11;;;;;;;0.50;0.30;;;;;;;7.03;100.00;101585.72;5023064;28;20099;-75
2023/12/08 07:47:43;;;;;;;0.73;0.55;;;;;;;7.00;100.00;101603.56;5029386;28;20050;-75
2023/12/08 07:50:35;;;;;;;0.82;0.50;;;;;;;6.97;100.00;101600.81;5029482;28;20045;-74
2023/12/08 07:53:04;;;;;;;1.52;0.60;;;;;;;6.91;100.00;101606.47;5016387;28;20042;-75
2023/12/08 07:55:36;;;;;;;2.38;0.43;;;;;;;6.85;100.00;101599.31;5031179;28;20053;-75
2023/12/08 07:58:06;;;;;;;3.13;0.30;;;;;;;6.78;100.00;101601.41;5027709;28;20536;-74
2023/12/08 08:00:35;;;;;;;0.20;0.20;;;;;;;6.72;100.00;101607.09;5028850;28;20056;-74
2023/12/08 08:03:04;;;;;;;0.40;0.20;;;;;;;6.65;100.00;101610.13;5031403;28;20064;-75
2023/12/08 08:05:36;;;;;;;0.52;0.22;;;;;;;6.59;100.00;101614.88;5027427;28;20069;-74
2023/12/08 08:08:09;;;;;;;0.40;0.30;;;;;;;6.49;100.00;101624.63;5024955;28;20041;-73
2023/12/08 08:10:37;;;;;;;0.15;0.13;;;;;;;6.48;100.00;101625.44;5025291;28;20045;-74
2023/12/08 08:13:07;;;;;;;0.75;0.28;;;;;;;6.43;100.00;101626.81;5023971;28;20045;-74
2023/12/08 08:15:36;;;;;;;0.30;0.20;;;;;;;6.42;100.00;101627.63;5023628;28;20143;-75
2023/12/08 08:18:05;;;;;;;0.60;0.20;;;;;;;6.40;100.00;101628.34;5025012;28;20045;-74
2023/12/08 08:20:37;;;;;;;0.13;0.10;;;;;;;6.35;100.00;101640.91;5025324;28;20050;-74
2023/12/08 08:23:05;;;;;;;0.83;0.10;;;;;;;6.32;100.00;101630.41;5024538;28;20491;-74
2023/12/08 08:25:34;;;;;;;0.20;0.20;;;;;;;6.32;100.00;101635.56;5026267;28;20083;-74
2023/12/08 08:28:03;;;;;;;0.68;0.40;;;;;;;6.32;100.00;101632.13;5024526;28;20054;-73
2023/12/08 08:30:34;;;;;;;1.85;0.60;;;;;;;6.31;100.00;101638.06;5024868;28;20058;-72
2023/12/08 08:33:02;;;;;;;0.82;0.40;;;;;;;6.33;100.00;101641.63;5024699;28;20118;-73
2023/12/08 08:35:34;;;;;;;0.20;0.20;;;;;;;6.38;100.00;101646.22;5025216;28;20064;-74
2023/12/08 08:38:02;;;;;;;0.65;0.63;;;;;;;6.42;100.00;101655.91;5026970;28;20049;-74
2023/12/08 08:40:35;;;;;;;0.90;0.25;;;;;;;6.42;100.00;101653.34;5024635;28;20057;-73
2023/12/08 08:43:03;;;;;;;1.30;0.30;;;;;;;6.43;100.00;101652.53;5025272;28;20484;-74
2023/12/08 08:45:37;;;;;;;0.10;0.10;;;;;;;6.48;100.00;101664.00;5026549;28;20041;-74
2023/12/08 08:48:05;;;;;;;0.20;0.20;;;;;;;6.47;100.00;101667.34;5028517;28;20049;-74
2023/12/08 08:50:36;;;;;;;0.40;0.17;;;;;;;6.49;100.00;101670.03;5026051;28;20048;-75
2023/12/08 08:53:06;;;;;;;0.32;0.10;;;;;;;6.49;100.00;101675.16;5021424;28;20075;-75
2023/12/08 08:55:34;;;;;;;0.22;0.15;;;;;;;6.54;100.00;101678.00;5024618;28;20092;-74
2023/12/08 08:58:04;;;;;;;0.30;0.30;;;;;;;6.49;100.00;101668.34;5023994;28;20668;-74
2023/12/08 09:00:34;;;;;;;1.52;0.30;;;;;;;6.50;100.00;101666.66;5024211;28;20686;-74
2023/12/08 09:03:08;;;;;;;2.33;0.47;;;;;;;6.44;100.00;101667.19;5024533;28;20049;-74
2023/12/08 09:05:40;;;;;;;1.17;0.40;;;;;;;6.37;100.00;101665.03;5022363;28;20155;-74
2023/12/08 09:08:09;;;;;;;0.38;0.38;;;;;;;6.36;100.00;101667.50;5023099;28;20053;-74
2023/12/08 09:10:38;;;;;;;0.98;0.43;;;;;;;6.27;100.00;101663.56;5023903;28;20045;-74
2023/12/08 09:13:10;;;;;;;1.00;0.65;;;;;;;6.32;100.00;101676.69;5022461;28;20045;-73
2023/12/08 09:15:38;;;;;;;2.20;0.38;;;;;;;6.29;100.00;101668.81;5023947;28;20049;-74
2023/12/08 09:18:09;;;;;;;1.27;0.60;;;;;;;6.28;100.00;101672.19;5021857;28;20160;-74
2023/12/08 09:20:39;;;;;;;0.88;0.28;;;;;;;6.31;100.00;101663.75;5022856;28;20797;-73
2023/12/08 09:23:10;;;;;;;0.35;0.30;;;;;;;6.32;100.00;101668.09;5023425;28;20111;-74
2023/12/08 09:25:38;;;;;;;0.30;0.20;;;;;;;6.33;100.00;101668.19;5022760;28;20058;-74
2023/12/08 09:28:07;;;;;;;0.17;0.15;;;;;;;6.33;100.00;101667.31;5022306;28;20120;-74
2023/12/08 09:30:36;;;;;;;1.02;0.22;;;;;;;6.36;100.00;101670.94;5022244;28;20487;-73
2023/12/08 09:33:30;;;;;;;0.35;0.20;;;;;;;6.38;100.00;101674.50;5022281;28;20057;-75
2023/12/08 09:35:59;;;;;;;1.23;0.30;;;;;;;6.36;100.00;101670.94;5024985;28;20060;-74
2023/12/08 09:38:38;;;;;;;0.63;0.40;;;;;;;6.40;100.00;101670.34;5023705;28;20065;-74
2023/12/08 09:41:17;;;;;;;;;;;;;;;;;;;;;
2023/12/08 09:43:52;;;;;;;0.25;0.20;;;;;;;6.42;100.00;101684.19;5018231;28;20061;-74
2023/12/08 09:46:21;;;;;;;2.35;0.30;;;;;;;6.39;100.00;101686.59;5028668;28;20049;-73
2023/12/08 09:48:58;;;;;;;0.40;0.30;;;;;;;6.33;100.00;101688.75;5026578;28;20072;-73
2023/12/08 09:51:27;;;;;;;1.92;0.35;;;;;;;6.34;100.00;101694.78;5027230;28;20053;-73
2023/12/08 09:53:57;;;;;;;0.90;0.30;;;;;;;6.37;100.00;101701.03;5026921;28;20112;-74
2023/12/08 09:56:28;;;;;;;0.80;0.40;;;;;;;6.39;100.00;101704.56;5026933;28;20053;-74
2023/12/08 09:58:57;;;;;;;0.43;0.30;;;;;;;6.41;100.00;101697.81;5025497;28;20046;-73
2023/12/08 10:01:26;;;;;;;0.30;0.22;;;;;;;6.42;100.00;101694.47;5025779;28;20559;-73
2023/12/08 10:03:56;;;;;;;1.08;0.30;;;;;;;6.44;100.00;101697.16;5024742;28;20561;-74
2023/12/08 10:06:25;;;;;;;0.43;0.25;;;;;;;6.42;100.00;101694.47;5026348;28;20056;-73
2023/12/08 10:08:54;;;;;;;0.68;0.30;;;;;;;6.43;100.00;101705.63;5026652;28;20076;-73
2023/12/08 10:11:23;;;;;;;1.88;0.45;;;;;;;6.41;100.00;101710.66;5026370;28;20057;-74
2023/12/08 10:13:54;;;;;;;1.35;0.38;;;;;;;6.40;100.00;101711.47;5026289;28;20049;-73
2023/12/08 10:16:24;;;;;;;0.40;0.22;;;;;;;6.42;100.00;101704.75;5024339;28;20069;-74
2023/12/08 10:18:53;;;;;;;0.65;0.40;;;;;;;6.35;100.00;101697.47;5017833;28;20046;-74
2023/12/08 10:21:23;;;;;;;0.32;0.30;;;;;;;6.35;100.00;101707.75;5009093;28;20132;-75
2023/12/08 10:24:01;;;;;;;0.10;0.10;;;;;;;6.17;100.00;101699.78;5024409;28;20140;-75
2023/12/08 10:26:30;;;;;;;2.92;0.35;;;;;;;6.21;100.00;101713.72;5026567;28;20130;-74
2023/12/08 10:28:59;;;;;;;0.28;0.20;;;;;;;6.22;100.00;101720.63;5023167;28;20053;-74
2023/12/08 10:31:32;;;;;;;0.70;0.47;;;;;;;6.24;100.00;101721.59;5025425;28;20042;-74
2023/12/08 10:34:00;;;;;;;1.73;0.32;;;;;;;6.25;100.00;101725.94;5024839;28;20121;-74
2023/12/08 10:36:33;;;;;;;1.80;0.35;;;;;;;6.25;100.00;101733.66;5025255;28;20045;-73
2023/12/08 10:39:02;;;;;;;4.25;0.68;;;;;;;6.28;100.00;101739.00;5024866;28;20049;-73
2023/12/08 10:41:34;;;;;;;1.10;0.20;;;;;;;6.27;100.00;101740.66;5025540;28;20061;-74
2023/12/08 10:44:05;;;;;;;0.13;0.13;;;;;;;6.28;100.00;101737.31;5024741;28;20063;-74
2023/12/08 10:46:34;;;;;;;0.47;0.40;;;;;;;6.25;100.00;101738.78;5022866;28;20049;-74
2023/12/08 10:49:04;;;;;;;2.78;0.30;;;;;;;6.23;100.00;101737.81;5026691;28;20057;-73
2023/12/08 10:51:39;;;;;;;0.00;0.00;;;;;;;6.18;100.00;101744.34;5025504;28;20621;-74
2023/12/08 10:54:10;;;;;;;0.50;0.20;;;;;;;6.15;100.00;101744.16;5023715;28;20470;-74
2023/12/08 10:56:38;;;;;;;1.27;0.40;;;;;;;6.12;100.00;101738.84;5025741;28;20049;-74
2023/12/08 10:59:11;;;;;;;0.65;0.30;;;;;;;6.14;100.00;101739.78;5025468;28;20049;-74
2023/12/08 11:01:47;;;;;;;0.80;0.20;;;;;;;6.13;100.00;101730.31;5022726;28;20049;-74
2023/12/08 11:04:21;;;;;;;2.90;0.25;;;;;;;6.17;100.00;101738.31;5025328;28;20478;-73
2023/12/08 11:06:59;;;;;;;0.65;0.43;;;;;;;6.18;100.00;101745.22;5022606;28;20049;-74
2023/12/08 11:09:32;;;;;;;1.48;0.73;;;;;;;6.15;100.00;101739.03;5026404;28;20108;-74
2023/12/08 11:12:03;;;;;;;0.80;0.60;;;;;;;6.14;100.00;101748.41;5024425;28;20077;-73
2023/12/08 11:14:39;;;;;;;1.08;0.32;;;;;;;6.08;100.00;101738.63;5022205;28;20143;-74
2023/12/08 11:17:16;;;;;;;1.77;0.50;;;;;;;6.13;100.00;101750.88;5024079;28;20057;-73
2023/12/08 11:19:46;;;;;;;0.95;0.88;;;;;;;6.11;100.00;101755.03;5001655;28;20132;-73
2023/12/08 11:22:17;;;;;;;0.10;0.10;;;;;;;6.08;100.00;101753.16;5006196;28;20100;-73
2023/12/08 11:24:56;;;;;;;0.90;0.40;;;;;;;6.00;100.00;101770.66;5007259;28;20061;-73
2023/12/08 11:27:30;;;;;;;1.20;0.20;;;;;;;5.98;100.00;101772.25;5005505;28;20133;-74
2023/12/08 11:30:08;;;;;;;3.55;1.20;;;;;;;5.96;100.00;101776.38;5006027;28;20053;-74
2023/12/08 11:32:49;;;;;;;1.48;0.70;;;;;;;5.98;100.00;101774.81;5003897;28;20141;-74
2023/12/08 11:35:20;;;;;;;2.55;0.70;;;;;;;5.97;100.00;101778.16;5005491;28;20077;-74
2023/12/08 11:37:51;;;;;;;2.42;1.30;;;;;;;5.98;100.00;101776.47;5006094;28;20056;-74
2023/12/08 11:40:20;;;;;;;3.25;0.90;;;;;;;5.91;100.00;101774.25;5005082;28;20096;-75